sensor_id;sensor_type;location;lat;lon;timestamp;pressure;altitude;pressure_sealevel;temperature
10058;BMP180;5068;51.286;7.518;2022-09-24T00:00:08;99113.00;;;14.40
10058;BMP180;5068;51.286;7.518;2022-09-24T00:01:42;99109.00;;;14.30
10058;BMP180;5068;51.286;7.518;2022-09-24T00:03:17;99116.00;;;14.40
10058;BMP180;5068;51.286;7.518;2022-09-24T00:04:51;99116.00;;;14.40
10058;BMP180;5068;51.286;7.518;2022-09-24T00:06:28;99113.00;;;14.40
10058;BMP180;5068;51.286;7.518;2022-09-24T00:08:01;99093.00;;;14.40
10058;BMP180;5068;51.286;7.518;2022-09-24T00:09:35;99110.00;;;14.40
10058;BMP180;5068;51.286;7.518;2022-09-24T00:11:09;99125.00;;;14.40
10058;BMP180;5068;51.286;7.518;2022-09-24T00:12:44;99105.00;;;14.40
10058;BMP180;5068;51.286;7.518;2022-09-24T00:14:19;99107.00;;;14.40
10058;BMP180;5068;51.286;7.518;2022-09-24T00:15:52;99106.00;;;14.40
10058;BMP180;5068;51.286;7.518;2022-09-24T00:17:25;99104.00;;;14.40
10058;BMP180;5068;51.286;7.518;2022-09-24T00:19:00;99107.00;;;14.40
10058;BMP180;5068;51.286;7.518;2022-09-24T00:20:36;99097.00;;;14.30
10058;BMP180;5068;51.286;7.518;2022-09-24T00:22:10;99085.00;;;14.30
10058;BMP180;5068;51.286;7.518;2022-09-24T00:23:48;99093.00;;;14.30
10058;BMP180;5068;51.286;7.518;2022-09-24T00:25:21;99087.00;;;14.30
10058;BMP180;5068;51.286;7.518;2022-09-24T00:27:23;99092.00;;;14.30
10058;BMP180;5068;51.286;7.518;2022-09-24T00:28:58;99087.00;;;14.30
10058;BMP180;5068;51.286;7.518;2022-09-24T00:30:31;99092.00;;;14.20
10058;BMP180;5068;51.286;7.518;2022-09-24T00:32:05;99100.00;;;14.20
10058;BMP180;5068;51.286;7.518;2022-09-24T00:33:38;99096.00;;;14.20
10058;BMP180;5068;51.286;7.518;2022-09-24T00:35:11;99100.00;;;14.20
10058;BMP180;5068;51.286;7.518;2022-09-24T00:36:45;99099.00;;;14.20
10058;BMP180;5068;51.286;7.518;2022-09-24T00:38:20;99100.00;;;14.00
10058;BMP180;5068;51.286;7.518;2022-09-24T00:39:53;99100.00;;;14.10
10058;BMP180;5068;51.286;7.518;2022-09-24T00:41:31;99094.00;;;14.10
10058;BMP180;5068;51.286;7.518;2022-09-24T00:43:21;99104.00;;;14.10
10058;BMP180;5068;51.286;7.518;2022-09-24T00:44:58;99082.00;;;14.10
10058;BMP180;5068;51.286;7.518;2022-09-24T00:46:38;99100.00;;;14.10
10058;BMP180;5068;51.286;7.518;2022-09-24T00:48:12;99111.00;;;14.10
10058;BMP180;5068;51.286;7.518;2022-09-24T00:49:48;99095.00;;;14.10
10058;BMP180;5068;51.286;7.518;2022-09-24T00:51:24;99114.00;;;14.10
10058;BMP180;5068;51.286;7.518;2022-09-24T00:53:03;99106.00;;;14.10
10058;BMP180;5068;51.286;7.518;2022-09-24T00:54:37;99108.00;;;14.10
10058;BMP180;5068;51.286;7.518;2022-09-24T00:56:12;99096.00;;;14.10
10058;BMP180;5068;51.286;7.518;2022-09-24T00:57:50;99086.00;;;14.20
10058;BMP180;5068;51.286;7.518;2022-09-24T00:59:26;99090.00;;;14.10
10058;BMP180;5068;51.286;7.518;2022-09-24T01:01:06;99093.00;;;14.10
10058;BMP180;5068;51.286;7.518;2022-09-24T01:02:45;99093.00;;;14.20
10058;BMP180;5068;51.286;7.518;2022-09-24T01:04:19;99098.00;;;14.20
10058;BMP180;5068;51.286;7.518;2022-09-24T01:05:55;99093.00;;;14.20
10058;BMP180;5068;51.286;7.518;2022-09-24T01:07:29;99101.00;;;14.10
10058;BMP180;5068;51.286;7.518;2022-09-24T01:09:03;99087.00;;;14.10
10058;BMP180;5068;51.286;7.518;2022-09-24T01:10:52;99094.00;;;14.20
10058;BMP180;5068;51.286;7.518;2022-09-24T01:12:38;99078.00;;;14.20
10058;BMP180;5068;51.286;7.518;2022-09-24T01:14:53;99091.00;;;14.20
10058;BMP180;5068;51.286;7.518;2022-09-24T01:16:40;99079.00;;;14.20
10058;BMP180;5068;51.286;7.518;2022-09-24T01:18:25;99091.00;;;14.20
10058;BMP180;5068;51.286;7.518;2022-09-24T01:20:41;99094.00;;;14.30
10058;BMP180;5068;51.286;7.518;2022-09-24T01:22:33;99100.00;;;14.30
10058;BMP180;5068;51.286;7.518;2022-09-24T01:24:41;99097.00;;;14.30
10058;BMP180;5068;51.286;7.518;2022-09-24T01:26:38;99085.00;;;14.30
10058;BMP180;5068;51.286;7.518;2022-09-24T01:28:34;99090.00;;;14.30
10058;BMP180;5068;51.286;7.518;2022-09-24T01:30:12;99087.00;;;14.30
10058;BMP180;5068;51.286;7.518;2022-09-24T01:31:52;99089.00;;;14.20
10058;BMP180;5068;51.286;7.518;2022-09-24T01:33:31;99079.00;;;14.20
10058;BMP180;5068;51.286;7.518;2022-09-24T01:35:13;99092.00;;;14.30
10058;BMP180;5068;51.286;7.518;2022-09-24T01:36:49;99064.00;;;14.20
10058;BMP180;5068;51.286;7.518;2022-09-24T01:38:28;99077.00;;;14.30
10058;BMP180;5068;51.286;7.518;2022-09-24T01:40:08;99084.00;;;14.20
10058;BMP180;5068;51.286;7.518;2022-09-24T01:41:44;99090.00;;;14.30
10058;BMP180;5068;51.286;7.518;2022-09-24T01:43:23;99088.00;;;14.30
10058;BMP180;5068;51.286;7.518;2022-09-24T01:44:58;99066.00;;;14.30
10058;BMP180;5068;51.286;7.518;2022-09-24T01:46:37;99055.00;;;14.30
10058;BMP180;5068;51.286;7.518;2022-09-24T01:48:12;99074.00;;;14.30
10058;BMP180;5068;51.286;7.518;2022-09-24T01:49:45;99055.00;;;14.30
10058;BMP180;5068;51.286;7.518;2022-09-24T01:51:24;99077.00;;;14.30
10058;BMP180;5068;51.286;7.518;2022-09-24T01:53:04;99075.00;;;14.30
10058;BMP180;5068;51.286;7.518;2022-09-24T01:54:42;99063.00;;;14.30
10058;BMP180;5068;51.286;7.518;2022-09-24T01:56:24;99066.00;;;14.30
10058;BMP180;5068;51.286;7.518;2022-09-24T01:58:04;99056.00;;;14.30
10058;BMP180;5068;51.286;7.518;2022-09-24T01:59:45;99067.00;;;14.30
10058;BMP180;5068;51.286;7.518;2022-09-24T02:01:25;99068.00;;;14.30
10058;BMP180;5068;51.286;7.518;2022-09-24T02:03:10;99057.00;;;14.30
10058;BMP180;5068;51.286;7.518;2022-09-24T02:04:50;99034.00;;;14.30
10058;BMP180;5068;51.286;7.518;2022-09-24T02:06:33;99047.00;;;14.30
10058;BMP180;5068;51.286;7.518;2022-09-24T02:08:13;99039.00;;;14.30
10058;BMP180;5068;51.286;7.518;2022-09-24T02:09:49;99056.00;;;14.30
10058;BMP180;5068;51.286;7.518;2022-09-24T02:11:23;99038.00;;;14.30
10058;BMP180;5068;51.286;7.518;2022-09-24T02:13:04;99038.00;;;14.30
10058;BMP180;5068;51.286;7.518;2022-09-24T02:14:44;99041.00;;;14.30
10058;BMP180;5068;51.286;7.518;2022-09-24T02:16:23;99039.00;;;14.30
10058;BMP180;5068;51.286;7.518;2022-09-24T02:18:03;99039.00;;;14.30
10058;BMP180;5068;51.286;7.518;2022-09-24T02:19:41;99042.00;;;14.30
10058;BMP180;5068;51.286;7.518;2022-09-24T02:21:17;99033.00;;;14.30
10058;BMP180;5068;51.286;7.518;2022-09-24T02:22:55;99029.00;;;14.30
10058;BMP180;5068;51.286;7.518;2022-09-24T02:24:36;99021.00;;;14.30
10058;BMP180;5068;51.286;7.518;2022-09-24T02:26:13;99030.00;;;14.30
10058;BMP180;5068;51.286;7.518;2022-09-24T02:27:46;99039.00;;;14.30
10058;BMP180;5068;51.286;7.518;2022-09-24T02:29:19;99031.00;;;14.30
10058;BMP180;5068;51.286;7.518;2022-09-24T02:31:04;99024.00;;;14.40
10058;BMP180;5068;51.286;7.518;2022-09-24T02:32:41;99025.00;;;14.40
10058;BMP180;5068;51.286;7.518;2022-09-24T02:34:21;99030.00;;;14.40
10058;BMP180;5068;51.286;7.518;2022-09-24T02:35:58;99035.00;;;14.40
10058;BMP180;5068;51.286;7.518;2022-09-24T02:37:35;99033.00;;;14.40
10058;BMP180;5068;51.286;7.518;2022-09-24T02:39:09;99039.00;;;14.40
10058;BMP180;5068;51.286;7.518;2022-09-24T02:40:41;99040.00;;;14.40
10058;BMP180;5068;51.286;7.518;2022-09-24T02:42:18;99038.00;;;14.40
10058;BMP180;5068;51.286;7.518;2022-09-24T02:43:52;99040.00;;;14.40
10058;BMP180;5068;51.286;7.518;2022-09-24T02:45:25;99042.00;;;14.40
10058;BMP180;5068;51.286;7.518;2022-09-24T02:46:58;99036.00;;;14.40
10058;BMP180;5068;51.286;7.518;2022-09-24T02:48:33;99040.00;;;14.40
10058;BMP180;5068;51.286;7.518;2022-09-24T02:50:07;99048.00;;;14.40
10058;BMP180;5068;51.286;7.518;2022-09-24T02:51:43;99028.00;;;14.40
10058;BMP180;5068;51.286;7.518;2022-09-24T02:53:17;99033.00;;;14.40
10058;BMP180;5068;51.286;7.518;2022-09-24T02:54:50;99015.00;;;14.40
10058;BMP180;5068;51.286;7.518;2022-09-24T02:56:23;99016.00;;;14.40
10058;BMP180;5068;51.286;7.518;2022-09-24T02:57:56;99043.00;;;14.40
10058;BMP180;5068;51.286;7.518;2022-09-24T03:02:17;99034.00;;;14.40
10058;BMP180;5068;51.286;7.518;2022-09-24T03:03:51;99042.00;;;14.40
10058;BMP180;5068;51.286;7.518;2022-09-24T03:05:24;99033.00;;;14.40
10058;BMP180;5068;51.286;7.518;2022-09-24T03:06:59;99036.00;;;14.40
10058;BMP180;5068;51.286;7.518;2022-09-24T03:08:32;99041.00;;;14.30
10058;BMP180;5068;51.286;7.518;2022-09-24T03:10:07;99038.00;;;14.40
10058;BMP180;5068;51.286;7.518;2022-09-24T03:11:41;99031.00;;;14.30
10058;BMP180;5068;51.286;7.518;2022-09-24T03:13:15;99006.00;;;14.40
10058;BMP180;5068;51.286;7.518;2022-09-24T03:14:49;99023.00;;;14.40
10058;BMP180;5068;51.286;7.518;2022-09-24T03:16:22;99027.00;;;14.40
10058;BMP180;5068;51.286;7.518;2022-09-24T03:17:56;99029.00;;;14.40
10058;BMP180;5068;51.286;7.518;2022-09-24T03:19:29;99014.00;;;14.40
10058;BMP180;5068;51.286;7.518;2022-09-24T03:21:05;99020.00;;;14.40
10058;BMP180;5068;51.286;7.518;2022-09-24T03:22:41;99021.00;;;14.40
10058;BMP180;5068;51.286;7.518;2022-09-24T03:24:15;99009.00;;;14.40
10058;BMP180;5068;51.286;7.518;2022-09-24T03:25:48;99016.00;;;14.40
10058;BMP180;5068;51.286;7.518;2022-09-24T03:27:22;99027.00;;;14.40
10058;BMP180;5068;51.286;7.518;2022-09-24T03:28:55;99006.00;;;14.40
10058;BMP180;5068;51.286;7.518;2022-09-24T03:30:29;99013.00;;;14.40
10058;BMP180;5068;51.286;7.518;2022-09-24T03:32:20;99007.00;;;14.40
10058;BMP180;5068;51.286;7.518;2022-09-24T03:33:52;99022.00;;;14.40
10058;BMP180;5068;51.286;7.518;2022-09-24T03:35:27;99015.00;;;14.40
10058;BMP180;5068;51.286;7.518;2022-09-24T03:37:00;99014.00;;;14.40
10058;BMP180;5068;51.286;7.518;2022-09-24T03:38:38;99015.00;;;14.40
10058;BMP180;5068;51.286;7.518;2022-09-24T03:40:11;99014.00;;;14.40
10058;BMP180;5068;51.286;7.518;2022-09-24T03:41:45;99013.00;;;14.40
10058;BMP180;5068;51.286;7.518;2022-09-24T03:43:19;99008.00;;;14.40
10058;BMP180;5068;51.286;7.518;2022-09-24T03:44:51;99006.00;;;14.40
10058;BMP180;5068;51.286;7.518;2022-09-24T03:46:25;99001.00;;;14.40
10058;BMP180;5068;51.286;7.518;2022-09-24T03:48:00;99004.00;;;14.40
10058;BMP180;5068;51.286;7.518;2022-09-24T03:49:33;98991.00;;;14.30
10058;BMP180;5068;51.286;7.518;2022-09-24T03:51:08;99004.00;;;14.30
10058;BMP180;5068;51.286;7.518;2022-09-24T03:52:41;98996.00;;;14.30
10058;BMP180;5068;51.286;7.518;2022-09-24T03:54:15;98999.00;;;14.30
10058;BMP180;5068;51.286;7.518;2022-09-24T03:55:55;99000.00;;;14.30
10058;BMP180;5068;51.286;7.518;2022-09-24T03:57:28;99004.00;;;14.30
10058;BMP180;5068;51.286;7.518;2022-09-24T03:59:01;98995.00;;;14.30
10058;BMP180;5068;51.286;7.518;2022-09-24T04:00:34;98989.00;;;14.30
10058;BMP180;5068;51.286;7.518;2022-09-24T04:02:12;98997.00;;;14.30
10058;BMP180;5068;51.286;7.518;2022-09-24T04:03:47;98997.00;;;14.40
10058;BMP180;5068;51.286;7.518;2022-09-24T04:05:21;99005.00;;;14.40
10058;BMP180;5068;51.286;7.518;2022-09-24T04:06:54;99000.00;;;14.30
10058;BMP180;5068;51.286;7.518;2022-09-24T04:08:28;98985.00;;;14.30
10058;BMP180;5068;51.286;7.518;2022-09-24T04:10:05;99003.00;;;14.40
10058;BMP180;5068;51.286;7.518;2022-09-24T04:11:37;99005.00;;;14.40
10058;BMP180;5068;51.286;7.518;2022-09-24T04:13:11;98999.00;;;14.40
10058;BMP180;5068;51.286;7.518;2022-09-24T04:14:43;98982.00;;;14.40
10058;BMP180;5068;51.286;7.518;2022-09-24T04:16:16;99006.00;;;14.30
10058;BMP180;5068;51.286;7.518;2022-09-24T04:17:50;99000.00;;;14.30
10058;BMP180;5068;51.286;7.518;2022-09-24T04:19:23;98991.00;;;14.30
10058;BMP180;5068;51.286;7.518;2022-09-24T04:20:58;98994.00;;;14.30
10058;BMP180;5068;51.286;7.518;2022-09-24T04:22:32;98972.00;;;14.30
10058;BMP180;5068;51.286;7.518;2022-09-24T04:24:05;98996.00;;;14.30
10058;BMP180;5068;51.286;7.518;2022-09-24T04:25:41;98997.00;;;14.30
10058;BMP180;5068;51.286;7.518;2022-09-24T04:27:14;98996.00;;;14.40
10058;BMP180;5068;51.286;7.518;2022-09-24T04:28:47;98990.00;;;14.40
10058;BMP180;5068;51.286;7.518;2022-09-24T04:30:23;98985.00;;;14.40
10058;BMP180;5068;51.286;7.518;2022-09-24T04:31:57;98988.00;;;14.40
10058;BMP180;5068;51.286;7.518;2022-09-24T04:33:30;98968.00;;;14.40
10058;BMP180;5068;51.286;7.518;2022-09-24T04:35:05;98991.00;;;14.40
10058;BMP180;5068;51.286;7.518;2022-09-24T04:36:38;98988.00;;;14.50
10058;BMP180;5068;51.286;7.518;2022-09-24T04:38:12;98976.00;;;14.50
10058;BMP180;5068;51.286;7.518;2022-09-24T04:39:46;98985.00;;;14.50
10058;BMP180;5068;51.286;7.518;2022-09-24T04:41:21;98985.00;;;14.50
10058;BMP180;5068;51.286;7.518;2022-09-24T04:42:54;98982.00;;;14.50
10058;BMP180;5068;51.286;7.518;2022-09-24T04:44:27;98970.00;;;14.50
10058;BMP180;5068;51.286;7.518;2022-09-24T04:46:02;98980.00;;;14.50
10058;BMP180;5068;51.286;7.518;2022-09-24T04:47:37;98989.00;;;14.50
10058;BMP180;5068;51.286;7.518;2022-09-24T04:49:12;98981.00;;;14.50
10058;BMP180;5068;51.286;7.518;2022-09-24T04:50:45;98961.00;;;14.50
10058;BMP180;5068;51.286;7.518;2022-09-24T04:52:18;98979.00;;;14.50
10058;BMP180;5068;51.286;7.518;2022-09-24T04:53:51;98974.00;;;14.50
10058;BMP180;5068;51.286;7.518;2022-09-24T04:55:26;98991.00;;;14.50
10058;BMP180;5068;51.286;7.518;2022-09-24T04:57:01;98980.00;;;14.50
10058;BMP180;5068;51.286;7.518;2022-09-24T04:58:33;98980.00;;;14.50
10058;BMP180;5068;51.286;7.518;2022-09-24T05:00:11;98980.00;;;14.50
10058;BMP180;5068;51.286;7.518;2022-09-24T05:01:46;98981.00;;;14.50
10058;BMP180;5068;51.286;7.518;2022-09-24T05:03:20;98989.00;;;14.50
10058;BMP180;5068;51.286;7.518;2022-09-24T05:04:54;98971.00;;;14.50
10058;BMP180;5068;51.286;7.518;2022-09-24T05:06:28;98976.00;;;14.50
10058;BMP180;5068;51.286;7.518;2022-09-24T05:08:02;98984.00;;;14.50
10058;BMP180;5068;51.286;7.518;2022-09-24T05:09:36;98983.00;;;14.50
10058;BMP180;5068;51.286;7.518;2022-09-24T05:11:09;98984.00;;;14.50
10058;BMP180;5068;51.286;7.518;2022-09-24T05:12:45;98984.00;;;14.50
10058;BMP180;5068;51.286;7.518;2022-09-24T05:14:19;98977.00;;;14.50
10058;BMP180;5068;51.286;7.518;2022-09-24T05:15:52;98978.00;;;14.50
10058;BMP180;5068;51.286;7.518;2022-09-24T05:17:26;98979.00;;;14.50
10058;BMP180;5068;51.286;7.518;2022-09-24T05:18:59;98981.00;;;14.50
10058;BMP180;5068;51.286;7.518;2022-09-24T05:20:36;98973.00;;;14.50
10058;BMP180;5068;51.286;7.518;2022-09-24T05:22:09;98978.00;;;14.50
10058;BMP180;5068;51.286;7.518;2022-09-24T05:23:44;98976.00;;;14.50
10058;BMP180;5068;51.286;7.518;2022-09-24T05:25:20;98979.00;;;14.50
10058;BMP180;5068;51.286;7.518;2022-09-24T05:26:53;98964.00;;;14.50
10058;BMP180;5068;51.286;7.518;2022-09-24T05:28:42;98974.00;;;14.50
10058;BMP180;5068;51.286;7.518;2022-09-24T05:30:15;98969.00;;;14.50
10058;BMP180;5068;51.286;7.518;2022-09-24T05:31:49;98959.00;;;14.50
10058;BMP180;5068;51.286;7.518;2022-09-24T05:33:22;98970.00;;;14.50
10058;BMP180;5068;51.286;7.518;2022-09-24T05:34:55;98975.00;;;14.50
10058;BMP180;5068;51.286;7.518;2022-09-24T05:36:30;98966.00;;;14.50
10058;BMP180;5068;51.286;7.518;2022-09-24T05:38:04;98974.00;;;14.50
10058;BMP180;5068;51.286;7.518;2022-09-24T05:39:38;98969.00;;;14.50
10058;BMP180;5068;51.286;7.518;2022-09-24T05:41:11;98972.00;;;14.50
10058;BMP180;5068;51.286;7.518;2022-09-24T05:42:44;98978.00;;;14.40
10058;BMP180;5068;51.286;7.518;2022-09-24T05:44:19;98968.00;;;14.40
10058;BMP180;5068;51.286;7.518;2022-09-24T05:45:52;98973.00;;;14.40
10058;BMP180;5068;51.286;7.518;2022-09-24T05:47:28;98946.00;;;14.40
10058;BMP180;5068;51.286;7.518;2022-09-24T05:49:02;98954.00;;;14.40
10058;BMP180;5068;51.286;7.518;2022-09-24T05:50:36;98968.00;;;14.50
10058;BMP180;5068;51.286;7.518;2022-09-24T05:52:09;98970.00;;;14.50
10058;BMP180;5068;51.286;7.518;2022-09-24T05:53:43;98966.00;;;14.40
10058;BMP180;5068;51.286;7.518;2022-09-24T05:55:17;98968.00;;;14.50
10058;BMP180;5068;51.286;7.518;2022-09-24T05:56:52;98966.00;;;14.50
10058;BMP180;5068;51.286;7.518;2022-09-24T05:58:26;98957.00;;;14.50
10058;BMP180;5068;51.286;7.518;2022-09-24T06:00:01;98968.00;;;14.50
10058;BMP180;5068;51.286;7.518;2022-09-24T06:01:57;98974.00;;;14.50
10058;BMP180;5068;51.286;7.518;2022-09-24T06:03:30;98980.00;;;14.50
10058;BMP180;5068;51.286;7.518;2022-09-24T06:05:05;98975.00;;;14.50
10058;BMP180;5068;51.286;7.518;2022-09-24T06:06:39;98974.00;;;14.50
10058;BMP180;5068;51.286;7.518;2022-09-24T06:08:15;98972.00;;;14.50
10058;BMP180;5068;51.286;7.518;2022-09-24T06:09:49;98971.00;;;14.60
10058;BMP180;5068;51.286;7.518;2022-09-24T06:11:23;98969.00;;;14.60
10058;BMP180;5068;51.286;7.518;2022-09-24T06:12:58;98978.00;;;14.60
10058;BMP180;5068;51.286;7.518;2022-09-24T06:14:31;98972.00;;;14.60
10058;BMP180;5068;51.286;7.518;2022-09-24T06:16:08;98980.00;;;14.60
10058;BMP180;5068;51.286;7.518;2022-09-24T06:17:43;98973.00;;;14.60
10058;BMP180;5068;51.286;7.518;2022-09-24T06:19:16;98979.00;;;14.60
10058;BMP180;5068;51.286;7.518;2022-09-24T06:20:49;98978.00;;;14.60
10058;BMP180;5068;51.286;7.518;2022-09-24T06:22:23;98978.00;;;14.60
10058;BMP180;5068;51.286;7.518;2022-09-24T06:24:00;98978.00;;;14.70
10058;BMP180;5068;51.286;7.518;2022-09-24T06:25:34;98978.00;;;14.70
10058;BMP180;5068;51.286;7.518;2022-09-24T06:27:07;98982.00;;;14.70
10058;BMP180;5068;51.286;7.518;2022-09-24T06:28:41;98977.00;;;14.70
10058;BMP180;5068;51.286;7.518;2022-09-24T06:30:15;98981.00;;;14.70
10058;BMP180;5068;51.286;7.518;2022-09-24T06:31:48;98985.00;;;14.80
10058;BMP180;5068;51.286;7.518;2022-09-24T06:33:26;98984.00;;;14.80
10058;BMP180;5068;51.286;7.518;2022-09-24T06:34:59;98987.00;;;14.80
10058;BMP180;5068;51.286;7.518;2022-09-24T06:36:33;98986.00;;;14.80
10058;BMP180;5068;51.286;7.518;2022-09-24T06:38:11;98984.00;;;14.90
10058;BMP180;5068;51.286;7.518;2022-09-24T06:39:44;98985.00;;;14.90
10058;BMP180;5068;51.286;7.518;2022-09-24T06:41:18;98989.00;;;14.90
10058;BMP180;5068;51.286;7.518;2022-09-24T06:42:51;98987.00;;;14.90
10058;BMP180;5068;51.286;7.518;2022-09-24T06:44:25;98992.00;;;14.90
10058;BMP180;5068;51.286;7.518;2022-09-24T06:46:00;98988.00;;;15.00
10058;BMP180;5068;51.286;7.518;2022-09-24T06:47:34;98990.00;;;15.00
10058;BMP180;5068;51.286;7.518;2022-09-24T06:49:09;98996.00;;;15.00
10058;BMP180;5068;51.286;7.518;2022-09-24T06:50:44;98995.00;;;15.00
10058;BMP180;5068;51.286;7.518;2022-09-24T06:52:18;98983.00;;;15.00
10058;BMP180;5068;51.286;7.518;2022-09-24T06:53:52;98986.00;;;15.00
10058;BMP180;5068;51.286;7.518;2022-09-24T06:55:26;99001.00;;;15.10
10058;BMP180;5068;51.286;7.518;2022-09-24T06:56:59;98999.00;;;15.10
10058;BMP180;5068;51.286;7.518;2022-09-24T06:58:32;99002.00;;;15.10
10058;BMP180;5068;51.286;7.518;2022-09-24T07:00:07;98996.00;;;15.20
10058;BMP180;5068;51.286;7.518;2022-09-24T07:01:41;98993.00;;;15.20
10058;BMP180;5068;51.286;7.518;2022-09-24T07:03:15;98998.00;;;15.20
10058;BMP180;5068;51.286;7.518;2022-09-24T07:04:50;98990.00;;;15.30
10058;BMP180;5068;51.286;7.518;2022-09-24T07:06:24;98999.00;;;15.30
10058;BMP180;5068;51.286;7.518;2022-09-24T07:07:57;99000.00;;;15.30
10058;BMP180;5068;51.286;7.518;2022-09-24T07:09:30;98990.00;;;15.40
10058;BMP180;5068;51.286;7.518;2022-09-24T07:11:04;98997.00;;;15.40
10058;BMP180;5068;51.286;7.518;2022-09-24T07:12:40;99000.00;;;15.40
10058;BMP180;5068;51.286;7.518;2022-09-24T07:14:12;98990.00;;;15.40
10058;BMP180;5068;51.286;7.518;2022-09-24T07:15:48;99000.00;;;15.50
10058;BMP180;5068;51.286;7.518;2022-09-24T07:17:22;99001.00;;;15.50
10058;BMP180;5068;51.286;7.518;2022-09-24T07:18:59;99000.00;;;15.50
10058;BMP180;5068;51.286;7.518;2022-09-24T07:20:34;99006.00;;;15.50
10058;BMP180;5068;51.286;7.518;2022-09-24T07:22:08;99003.00;;;15.60
10058;BMP180;5068;51.286;7.518;2022-09-24T07:23:41;98997.00;;;15.60
10058;BMP180;5068;51.286;7.518;2022-09-24T07:25:15;99004.00;;;15.60
10058;BMP180;5068;51.286;7.518;2022-09-24T07:26:48;99015.00;;;15.60
10058;BMP180;5068;51.286;7.518;2022-09-24T07:28:22;99002.00;;;15.60
10058;BMP180;5068;51.286;7.518;2022-09-24T07:29:55;99010.00;;;15.70
10058;BMP180;5068;51.286;7.518;2022-09-24T07:31:29;99011.00;;;15.70
10058;BMP180;5068;51.286;7.518;2022-09-24T07:33:03;99016.00;;;15.70
10058;BMP180;5068;51.286;7.518;2022-09-24T07:34:37;99015.00;;;15.70
10058;BMP180;5068;51.286;7.518;2022-09-24T07:36:11;99021.00;;;15.80
10058;BMP180;5068;51.286;7.518;2022-09-24T07:37:45;99019.00;;;15.80
10058;BMP180;5068;51.286;7.518;2022-09-24T07:39:18;99026.00;;;15.80
10058;BMP180;5068;51.286;7.518;2022-09-24T07:40:56;99021.00;;;15.80
10058;BMP180;5068;51.286;7.518;2022-09-24T07:42:30;99016.00;;;15.80
10058;BMP180;5068;51.286;7.518;2022-09-24T07:44:04;99023.00;;;15.90
10058;BMP180;5068;51.286;7.518;2022-09-24T07:45:39;99030.00;;;15.90
10058;BMP180;5068;51.286;7.518;2022-09-24T07:47:14;99025.00;;;15.90
10058;BMP180;5068;51.286;7.518;2022-09-24T07:48:48;99025.00;;;15.90
10058;BMP180;5068;51.286;7.518;2022-09-24T07:50:21;99030.00;;;15.90
10058;BMP180;5068;51.286;7.518;2022-09-24T07:51:56;99027.00;;;15.90
10058;BMP180;5068;51.286;7.518;2022-09-24T07:53:30;99029.00;;;16.00
10058;BMP180;5068;51.286;7.518;2022-09-24T07:55:05;99024.00;;;16.00
10058;BMP180;5068;51.286;7.518;2022-09-24T07:56:39;99032.00;;;16.00
10058;BMP180;5068;51.286;7.518;2022-09-24T07:58:13;99024.00;;;16.00
10058;BMP180;5068;51.286;7.518;2022-09-24T07:59:47;99026.00;;;16.10
10058;BMP180;5068;51.286;7.518;2022-09-24T08:01:22;99034.00;;;16.10
10058;BMP180;5068;51.286;7.518;2022-09-24T08:02:56;99031.00;;;16.10
10058;BMP180;5068;51.286;7.518;2022-09-24T08:04:30;99037.00;;;16.20
10058;BMP180;5068;51.286;7.518;2022-09-24T08:06:04;99021.00;;;16.20
10058;BMP180;5068;51.286;7.518;2022-09-24T08:07:38;99022.00;;;16.20
10058;BMP180;5068;51.286;7.518;2022-09-24T08:09:14;99028.00;;;16.20
10058;BMP180;5068;51.286;7.518;2022-09-24T08:10:47;99023.00;;;16.30
10058;BMP180;5068;51.286;7.518;2022-09-24T08:12:24;99034.00;;;16.30
10058;BMP180;5068;51.286;7.518;2022-09-24T08:13:58;99033.00;;;16.30
10058;BMP180;5068;51.286;7.518;2022-09-24T08:15:32;99028.00;;;16.40
10058;BMP180;5068;51.286;7.518;2022-09-24T08:17:06;99031.00;;;16.40
10058;BMP180;5068;51.286;7.518;2022-09-24T08:18:41;99038.00;;;16.40
10058;BMP180;5068;51.286;7.518;2022-09-24T08:20:15;99038.00;;;16.50
10058;BMP180;5068;51.286;7.518;2022-09-24T08:21:49;99030.00;;;16.50
10058;BMP180;5068;51.286;7.518;2022-09-24T08:23:24;99035.00;;;16.50
10058;BMP180;5068;51.286;7.518;2022-09-24T08:24:58;99031.00;;;16.60
10058;BMP180;5068;51.286;7.518;2022-09-24T08:26:32;99030.00;;;16.60
10058;BMP180;5068;51.286;7.518;2022-09-24T08:28:07;99030.00;;;16.70
10058;BMP180;5068;51.286;7.518;2022-09-24T08:29:42;99030.00;;;16.70
10058;BMP180;5068;51.286;7.518;2022-09-24T08:31:16;99030.00;;;16.80
10058;BMP180;5068;51.286;7.518;2022-09-24T08:32:50;99034.00;;;16.80
10058;BMP180;5068;51.286;7.518;2022-09-24T08:34:23;99028.00;;;16.90
10058;BMP180;5068;51.286;7.518;2022-09-24T08:35:58;99021.00;;;16.90
10058;BMP180;5068;51.286;7.518;2022-09-24T08:37:32;99033.00;;;17.00
10058;BMP180;5068;51.286;7.518;2022-09-24T08:39:08;99036.00;;;17.10
10058;BMP180;5068;51.286;7.518;2022-09-24T08:40:46;99032.00;;;17.10
10058;BMP180;5068;51.286;7.518;2022-09-24T08:42:35;99031.00;;;17.20
10058;BMP180;5068;51.286;7.518;2022-09-24T08:44:16;99034.00;;;17.20
10058;BMP180;5068;51.286;7.518;2022-09-24T08:46:20;99029.00;;;17.30
10058;BMP180;5068;51.286;7.518;2022-09-24T08:48:18;99029.00;;;17.30
10058;BMP180;5068;51.286;7.518;2022-09-24T08:50:02;99022.00;;;17.30
10058;BMP180;5068;51.286;7.518;2022-09-24T08:52:04;99023.00;;;17.40
10058;BMP180;5068;51.286;7.518;2022-09-24T08:53:45;99025.00;;;17.50
10058;BMP180;5068;51.286;7.518;2022-09-24T08:55:30;99029.00;;;17.50
10058;BMP180;5068;51.286;7.518;2022-09-24T08:57:13;99028.00;;;17.60
10058;BMP180;5068;51.286;7.518;2022-09-24T08:58:55;99026.00;;;17.60
10058;BMP180;5068;51.286;7.518;2022-09-24T09:00:42;99027.00;;;17.60
10058;BMP180;5068;51.286;7.518;2022-09-24T09:02:36;99035.00;;;17.70
10058;BMP180;5068;51.286;7.518;2022-09-24T09:04:25;99019.00;;;17.70
10058;BMP180;5068;51.286;7.518;2022-09-24T09:06:04;99035.00;;;17.80
10058;BMP180;5068;51.286;7.518;2022-09-24T09:07:50;99034.00;;;17.80
10058;BMP180;5068;51.286;7.518;2022-09-24T09:09:40;99034.00;;;17.90
10058;BMP180;5068;51.286;7.518;2022-09-24T09:11:21;99029.00;;;17.90
10058;BMP180;5068;51.286;7.518;2022-09-24T09:13:03;99031.00;;;18.00
10058;BMP180;5068;51.286;7.518;2022-09-24T09:14:44;99029.00;;;18.00
10058;BMP180;5068;51.286;7.518;2022-09-24T09:16:26;99023.00;;;18.10
10058;BMP180;5068;51.286;7.518;2022-09-24T09:18:11;99035.00;;;18.20
10058;BMP180;5068;51.286;7.518;2022-09-24T09:19:53;99035.00;;;18.20
10058;BMP180;5068;51.286;7.518;2022-09-24T09:21:33;99032.00;;;18.30
10058;BMP180;5068;51.286;7.518;2022-09-24T09:23:18;99029.00;;;18.30
10058;BMP180;5068;51.286;7.518;2022-09-24T09:24:54;99027.00;;;18.40
10058;BMP180;5068;51.286;7.518;2022-09-24T09:26:36;99033.00;;;18.40